createdAt,value
2023-08-28T00:00:11.274Z,24.86
2023-08-28T00:02:39.126Z,23.76
2023-08-28T00:05:07.549Z,25.20
2023-08-28T00:07:35.405Z,25.42
2023-08-28T00:10:05.106Z,25.90
2023-08-28T00:12:35.268Z,24.96
2023-08-28T00:15:03.135Z,25.34
2023-08-28T00:17:32.046Z,26.12
2023-08-28T00:19:59.929Z,27.03
2023-08-28T00:22:27.849Z,27.43
2023-08-28T00:24:55.611Z,27.68
2023-08-28T00:27:24.774Z,27.38
2023-08-28T00:29:52.814Z,26.69
2023-08-28T00:32:20.583Z,26.93
2023-08-28T00:34:48.433Z,26.20
2023-08-28T00:37:16.228Z,25.82
2023-08-28T00:39:44.912Z,27.02
2023-08-28T00:42:12.866Z,27.69
2023-08-28T00:44:43.551Z,26.58
2023-08-28T00:47:12.038Z,26.71
2023-08-28T00:49:39.944Z,24.86
2023-08-28T00:52:08.089Z,25.01
2023-08-28T00:54:35.893Z,25.84
2023-08-28T00:57:04.696Z,25.17
2023-08-28T00:59:33.252Z,25.90
2023-08-28T01:02:02.473Z,26.28
2023-08-28T01:04:32.049Z,26.66
2023-08-28T01:07:09.221Z,27.45
2023-08-28T01:09:48.040Z,27.63
2023-08-28T01:12:25.092Z,25.45
2023-08-28T01:15:00.535Z,27.38
2023-08-28T01:17:31.676Z,26.34
2023-08-28T01:20:00.648Z,27.86
2023-08-28T01:22:33.949Z,27.32
2023-08-28T01:25:10.106Z,27.40
2023-08-28T01:27:39.420Z,26.94
2023-08-28T01:30:09.719Z,27.49
2023-08-28T01:32:37.724Z,27.92
2023-08-28T01:35:10.030Z,28.17
2023-08-28T01:37:51.129Z,28.01
2023-08-28T01:40:25.594Z,27.85
2023-08-28T01:42:54.304Z,27.16
2023-08-28T01:45:23.035Z,26.99
2023-08-28T01:47:51.485Z,26.87
2023-08-28T01:50:19.352Z,27.10
2023-08-28T01:52:47.142Z,27.00
2023-08-28T01:55:15.028Z,27.26
2023-08-28T01:57:44.130Z,26.73
2023-08-28T02:00:13.318Z,27.22
2023-08-28T02:02:50.057Z,27.43
2023-08-28T02:05:17.921Z,27.45
2023-08-28T02:07:45.735Z,27.06
2023-08-28T02:10:13.486Z,27.17
2023-08-28T02:12:41.208Z,26.46
2023-08-28T02:15:11.601Z,24.55
2023-08-28T02:17:39.566Z,24.93
2023-08-28T02:20:09.931Z,25.12
2023-08-28T02:22:37.764Z,25.55
2023-08-28T02:25:06.560Z,26.70
2023-08-28T02:27:34.667Z,27.31
2023-08-28T02:30:02.426Z,27.59
2023-08-28T02:32:33.146Z,28.17
2023-08-28T02:35:01.221Z,28.60
2023-08-28T02:37:28.988Z,28.62
2023-08-28T02:39:56.803Z,28.24
2023-08-28T02:42:24.579Z,28.13
2023-08-28T02:44:52.759Z,27.87
2023-08-28T02:47:20.520Z,27.59
2023-08-28T02:49:49.685Z,27.33
2023-08-28T02:52:17.443Z,26.23
2023-08-28T02:54:45.490Z,26.23
2023-08-28T02:57:13.279Z,26.36
2023-08-28T02:59:41.063Z,26.61
2023-08-28T03:02:08.835Z,27.04
2023-08-28T03:04:36.641Z,26.57
2023-08-28T03:07:05.994Z,25.92
2023-08-28T03:09:34.345Z,25.53
2023-08-28T03:12:02.077Z,26.23
2023-08-28T03:14:30.013Z,25.81
2023-08-28T03:16:57.779Z,25.78
2023-08-28T03:19:25.681Z,25.11
2023-08-28T03:21:53.655Z,23.97
2023-08-28T03:24:22.795Z,23.69
2023-08-28T03:26:50.621Z,23.98
2023-08-28T03:29:18.368Z,25.27
2023-08-28T03:31:46.710Z,24.74
2023-08-28T03:34:15.514Z,23.85
2023-08-28T03:36:43.848Z,25.53
2023-08-28T03:39:11.736Z,26.24
2023-08-28T03:41:40.841Z,26.35
2023-08-28T03:44:08.616Z,26.52
2023-08-28T03:46:36.336Z,27.03
2023-08-28T03:49:05.464Z,26.98
2023-08-28T03:51:34.383Z,27.79
2023-08-28T03:54:03.090Z,26.70
2023-08-28T03:56:31.621Z,23.40
2023-08-28T03:59:01.746Z,24.30
2023-08-28T04:01:30.007Z,24.91
2023-08-28T04:03:57.806Z,25.86
2023-08-28T04:06:25.705Z,26.11
2023-08-28T04:08:55.366Z,27.18
2023-08-28T04:11:23.239Z,27.84
2023-08-28T04:13:51.719Z,28.23
2023-08-28T04:16:21.199Z,28.62
2023-08-28T04:18:49.052Z,28.19
2023-08-28T04:21:16.942Z,27.37
2023-08-28T04:23:44.717Z,28.01
2023-08-28T04:26:12.522Z,28.07
2023-08-28T04:28:40.334Z,27.86
2023-08-28T04:31:10.345Z,27.21
2023-08-28T04:33:39.830Z,27.31
2023-08-28T04:36:07.725Z,27.59
2023-08-28T04:38:35.685Z,26.87
2023-08-28T04:41:05.389Z,26.23
2023-08-28T04:43:34.853Z,26.46
2023-08-28T04:46:04.046Z,28.50
2023-08-28T04:48:33.305Z,28.65
2023-08-28T04:51:02.556Z,28.11
2023-08-28T04:53:30.493Z,29.23
2023-08-28T04:55:58.377Z,27.98
2023-08-28T04:58:28.863Z,27.54
2023-08-28T05:00:57.876Z,26.47
2023-08-28T05:03:25.775Z,27.46
2023-08-28T05:05:54.503Z,28.03
2023-08-28T05:08:23.677Z,27.65
2023-08-28T05:10:51.448Z,24.65
2023-08-28T05:13:19.388Z,25.39
2023-08-28T05:15:47.259Z,26.19
2023-08-28T05:18:15.778Z,23.73
2023-08-28T05:20:43.784Z,25.27
2023-08-28T05:23:11.626Z,27.14
2023-08-28T05:25:40.868Z,27.75
2023-08-28T05:28:08.730Z,28.97
2023-08-28T05:30:36.580Z,29.32
2023-08-28T05:33:04.859Z,29.55
2023-08-28T05:35:33.040Z,29.88
2023-08-28T05:38:00.881Z,28.93
2023-08-28T05:40:29.023Z,30.01
2023-08-28T05:42:58.433Z,26.92
2023-08-28T05:45:27.793Z,25.79
2023-08-28T05:47:56.997Z,27.31
2023-08-28T05:50:24.744Z,28.46
2023-08-28T05:52:53.023Z,28.20
2023-08-28T05:55:21.358Z,28.39
2023-08-28T05:57:49.130Z,28.62
2023-08-28T06:00:18.905Z,29.78
2023-08-28T06:02:47.052Z,29.25
2023-08-28T06:05:15.409Z,29.39
2023-08-28T06:07:44.446Z,29.09
2023-08-28T06:10:14.025Z,28.83
2023-08-28T06:12:41.833Z,28.43
2023-08-28T06:15:11.958Z,29.06
2023-08-28T06:17:42.294Z,28.66
2023-08-28T06:20:14.465Z,28.45
2023-08-28T06:22:43.640Z,28.10
2023-08-28T06:25:11.666Z,27.87
2023-08-28T06:27:40.031Z,27.71
2023-08-28T06:30:08.902Z,27.44
2023-08-28T06:32:36.798Z,27.60
2023-08-28T06:35:06.925Z,27.91
2023-08-28T06:37:36.351Z,27.74
2023-08-28T06:40:05.110Z,27.14
2023-08-28T06:42:33.152Z,27.61
2023-08-28T06:45:01.844Z,28.66
2023-08-28T06:47:29.796Z,28.32
2023-08-28T06:49:57.952Z,28.27
2023-08-28T06:52:27.192Z,28.50
2023-08-28T06:54:55.163Z,27.38
2023-08-28T06:57:23.014Z,27.97
2023-08-28T06:59:51.284Z,28.20
2023-08-28T07:02:19.227Z,29.34
2023-08-28T07:04:46.923Z,28.99
2023-08-28T07:07:19.219Z,29.10
2023-08-28T07:09:48.578Z,28.88
2023-08-28T07:12:16.576Z,29.54
2023-08-28T07:14:44.419Z,29.26
2023-08-28T07:17:12.256Z,28.51
2023-08-28T07:19:40.489Z,28.44
2023-08-28T07:22:09.542Z,28.96
2023-08-28T07:24:37.344Z,28.95
2023-08-28T07:27:06.668Z,27.95
2023-08-28T07:29:34.515Z,28.70
2023-08-28T07:32:02.323Z,29.19
2023-08-28T07:34:33.732Z,30.14
2023-08-28T07:37:01.521Z,29.76
2023-08-28T07:39:29.287Z,29.98
2023-08-28T07:41:58.602Z,29.70
2023-08-28T07:44:27.816Z,28.97
2023-08-28T07:46:55.582Z,29.46
2023-08-28T07:49:23.528Z,28.59
2023-08-28T07:51:51.248Z,28.07
2023-08-28T07:54:19.035Z,28.15
2023-08-28T07:56:46.816Z,27.96
2023-08-28T07:59:14.636Z,28.74
2023-08-28T08:01:44.260Z,27.76
2023-08-28T08:04:12.071Z,28.20
2023-08-28T08:06:40.163Z,26.77
2023-08-28T08:09:08.043Z,28.42
2023-08-28T08:11:35.901Z,27.83
2023-08-28T08:14:04.778Z,28.15
2023-08-28T08:16:32.663Z,28.81
2023-08-28T08:19:01.905Z,28.90
2023-08-28T08:21:29.770Z,28.59
2023-08-28T08:23:57.611Z,29.02
2023-08-28T08:26:25.476Z,27.38
2023-08-28T08:28:54.158Z,28.78
2023-08-28T08:31:22.015Z,28.76
2023-08-28T08:33:49.846Z,29.38
2023-08-28T08:36:19.360Z,29.78
2023-08-28T08:38:47.121Z,29.66
2023-08-28T08:41:14.928Z,29.72
2023-08-28T08:43:42.784Z,28.17
2023-08-28T08:46:10.839Z,28.33
2023-08-28T08:48:39.301Z,29.05
2023-08-28T08:51:08.927Z,28.43
2023-08-28T08:53:45.277Z,29.10
2023-08-28T08:56:17.988Z,29.38
2023-08-28T08:58:48.109Z,29.68
2023-08-28T09:01:17.345Z,29.54
2023-08-28T09:03:45.775Z,29.42
2023-08-28T09:06:14.103Z,30.12
2023-08-28T09:08:45.580Z,29.53
2023-08-28T09:11:13.443Z,30.61
2023-08-28T09:13:41.256Z,28.54
2023-08-28T09:16:09.281Z,28.49
2023-08-28T09:18:37.083Z,28.56
2023-08-28T09:21:09.482Z,28.88
2023-08-28T09:23:46.602Z,29.64
2023-08-28T09:26:17.019Z,30.36
2023-08-28T09:28:59.557Z,27.64
2023-08-28T09:31:29.901Z,29.72
2023-08-28T09:34:07.290Z,29.60
2023-08-28T09:36:39.206Z,29.38
2023-08-28T09:39:09.765Z,28.49
2023-08-28T09:41:38.662Z,29.07
2023-08-28T09:44:07.074Z,28.29
2023-08-28T09:46:37.336Z,29.13
2023-08-28T09:49:05.682Z,29.31
2023-08-28T09:51:42.092Z,29.10
2023-08-28T09:54:12.601Z,28.93
2023-08-28T09:56:41.356Z,28.63
2023-08-28T09:59:11.414Z,28.93
2023-08-28T10:01:40.003Z,28.73
2023-08-28T10:04:09.188Z,29.41
2023-08-28T10:06:39.557Z,29.27
2023-08-28T10:09:19.597Z,29.13
2023-08-28T10:11:48.411Z,28.85
2023-08-28T10:14:16.795Z,28.91
2023-08-28T10:16:51.773Z,28.73
2023-08-28T10:19:23.778Z,28.53
2023-08-28T10:21:53.410Z,27.97
2023-08-28T10:24:23.978Z,28.91
2023-08-28T10:26:52.879Z,28.98
2023-08-28T10:29:21.471Z,27.95
2023-08-28T10:31:51.353Z,28.12
2023-08-28T10:34:22.937Z,29.15
2023-08-28T10:39:27.021Z,29.30
2023-08-28T10:41:55.436Z,29.62
2023-08-28T10:44:24.530Z,30.11
2023-08-28T10:46:53.344Z,30.66
2023-08-28T10:49:21.211Z,31.24
2023-08-28T10:51:48.968Z,30.77
2023-08-28T10:54:16.772Z,30.26
2023-08-28T10:56:55.656Z,30.67
2023-08-28T10:59:25.167Z,29.24
2023-08-28T11:01:54.620Z,30.27
2023-08-28T11:04:23.495Z,29.31
2023-08-28T11:06:51.500Z,30.38
2023-08-28T11:09:36.924Z,29.75
2023-08-28T11:12:31.484Z,30.88
2023-08-28T11:15:04.745Z,30.82
2023-08-28T11:17:34.215Z,30.96
2023-08-28T11:20:09.819Z,31.62
2023-08-28T11:22:39.470Z,31.00
2023-08-28T11:25:10.060Z,31.08
2023-08-28T11:27:47.674Z,30.22
2023-08-28T11:30:18.205Z,30.83
2023-08-28T11:32:47.762Z,30.40
2023-08-28T11:35:16.221Z,30.43
2023-08-28T11:37:47.188Z,29.17
2023-08-28T11:40:20.371Z,29.32
2023-08-28T11:42:50.831Z,29.60
2023-08-28T11:45:25.762Z,29.69
2023-08-28T11:47:54.604Z,29.66
2023-08-28T11:50:22.826Z,29.58
2023-08-28T11:52:50.732Z,30.12
2023-08-28T11:55:20.739Z,30.07
2023-08-28T11:57:52.616Z,30.76
2023-08-28T12:00:21.668Z,32.09
2023-08-28T12:02:50.607Z,31.58
2023-08-28T12:05:18.818Z,31.11
2023-08-28T12:07:47.972Z,30.46
2023-08-28T12:10:17.392Z,29.94
2023-08-28T12:12:45.686Z,29.88
2023-08-28T12:15:14.829Z,30.63
2023-08-28T12:17:42.762Z,30.29
2023-08-28T12:20:20.480Z,29.63
2023-08-28T12:22:48.722Z,30.71
2023-08-28T12:25:16.655Z,31.73
2023-08-28T12:27:46.714Z,31.04
2023-08-28T12:30:21.950Z,30.42
2023-08-28T12:32:54.780Z,29.78
2023-08-28T12:35:23.663Z,30.17
2023-08-28T12:37:52.637Z,30.13
2023-08-28T12:40:20.605Z,30.63
2023-08-28T12:42:48.470Z,30.11
2023-08-28T12:45:16.582Z,29.50
2023-08-28T12:47:45.769Z,30.29
2023-08-28T12:50:16.707Z,30.37
2023-08-28T12:52:46.884Z,31.40
2023-08-28T12:55:14.649Z,31.71
2023-08-28T12:57:42.445Z,31.22
2023-08-28T13:00:12.407Z,29.42
2023-08-28T13:02:40.305Z,30.01
2023-08-28T13:05:10.136Z,30.38
2023-08-28T13:07:37.899Z,30.60
2023-08-28T13:10:06.711Z,29.10
2023-08-28T13:12:34.488Z,29.54
2023-08-28T13:15:03.938Z,30.56
2023-08-28T13:17:43.957Z,30.55
2023-08-28T13:20:14.940Z,30.61
2023-08-28T13:22:42.816Z,30.25
2023-08-28T13:25:11.273Z,29.33
2023-08-28T13:27:39.020Z,29.53
2023-08-28T13:30:08.639Z,30.02
2023-08-28T13:32:36.881Z,29.40
2023-08-28T13:35:05.811Z,30.27
2023-08-28T13:37:34.955Z,30.17
2023-08-28T13:40:02.864Z,30.36
2023-08-28T13:42:30.649Z,30.79
2023-08-28T13:44:58.655Z,28.95
2023-08-28T13:47:26.514Z,29.94
2023-08-28T13:49:54.384Z,30.04
2023-08-28T13:52:22.170Z,29.58
2023-08-28T13:54:51.314Z,29.75
2023-08-28T13:57:19.089Z,29.68
2023-08-28T13:59:46.891Z,29.40
2023-08-28T14:02:15.148Z,29.85
2023-08-28T14:04:44.653Z,29.45
2023-08-28T14:07:12.689Z,28.85
2023-08-28T14:09:40.426Z,30.02
2023-08-28T14:12:10.011Z,29.88
2023-08-28T14:14:37.887Z,30.20
2023-08-28T14:17:06.120Z,30.05
2023-08-28T14:19:34.106Z,29.92
2023-08-28T14:22:01.966Z,30.26
2023-08-28T14:24:29.882Z,29.59
2023-08-28T14:26:57.730Z,30.46
2023-08-28T14:29:27.488Z,30.55
2023-08-28T14:31:55.927Z,30.02
2023-08-28T14:34:23.788Z,29.44
2023-08-28T14:36:51.624Z,30.49
2023-08-28T14:39:19.450Z,30.02
2023-08-28T14:41:47.226Z,29.89
2023-08-28T14:44:14.966Z,29.86
2023-08-28T14:46:44.236Z,29.88
2023-08-28T14:49:12.000Z,31.17
2023-08-28T14:51:39.995Z,29.86
2023-08-28T14:54:08.134Z,30.55
2023-08-28T14:56:35.989Z,29.96
2023-08-28T14:59:03.963Z,30.03
2023-08-28T15:01:41.552Z,30.54
2023-08-28T15:04:11.654Z,30.38
2023-08-28T15:06:39.538Z,29.50
2023-08-28T15:09:07.317Z,30.21
2023-08-28T15:11:35.144Z,28.53
2023-08-28T15:14:02.931Z,29.31
2023-08-28T15:16:31.010Z,30.00
2023-08-28T15:18:58.842Z,30.21
2023-08-28T15:21:27.983Z,29.26
2023-08-28T15:23:55.768Z,29.36
2023-08-28T15:26:24.427Z,29.84
2023-08-28T15:28:52.244Z,29.21
2023-08-28T15:31:19.966Z,28.94
2023-08-28T15:33:50.577Z,29.36
2023-08-28T15:36:18.391Z,28.26
2023-08-28T15:38:47.520Z,28.41
2023-08-28T15:41:15.365Z,28.40
2023-08-28T15:43:43.112Z,29.45
2023-08-28T15:46:10.941Z,28.79
2023-08-28T15:48:38.765Z,29.66
2023-08-28T15:51:06.515Z,29.60
2023-08-28T15:53:34.357Z,28.30
2023-08-28T15:56:03.451Z,29.62
2023-08-28T15:58:32.254Z,29.74
2023-08-28T16:01:00.535Z,29.20
2023-08-28T16:03:28.912Z,29.51
2023-08-28T16:05:57.527Z,29.89
2023-08-28T16:08:25.309Z,29.79
2023-08-28T16:10:53.164Z,29.33
2023-08-28T16:13:22.239Z,29.37
2023-08-28T16:15:51.374Z,28.80
2023-08-28T16:18:19.371Z,29.84
2023-08-28T16:20:49.020Z,30.24
2023-08-28T16:23:16.955Z,30.22
2023-08-28T16:25:44.900Z,29.70
2023-08-28T16:28:13.687Z,28.97
2023-08-28T16:30:47.442Z,29.18
2023-08-28T16:33:15.374Z,28.54
2023-08-28T16:35:43.275Z,28.67
2023-08-28T16:38:11.134Z,29.16
2023-08-28T16:40:39.028Z,28.47
2023-08-28T16:43:06.765Z,29.93
2023-08-28T16:45:34.619Z,29.28
2023-08-28T16:48:03.956Z,29.25
2023-08-28T16:50:31.778Z,29.57
2023-08-28T16:52:59.475Z,29.37
2023-08-28T16:55:28.378Z,29.92
2023-08-28T16:57:56.100Z,29.98
2023-08-28T17:00:24.497Z,30.32
2023-08-28T17:02:53.862Z,30.24
2023-08-28T17:05:23.371Z,30.48
2023-08-28T17:07:51.204Z,29.51
2023-08-28T17:10:19.063Z,30.21
2023-08-28T17:12:46.878Z,30.94
2023-08-28T17:15:14.963Z,30.60
2023-08-28T17:17:42.753Z,30.60
2023-08-28T17:20:10.829Z,29.53
2023-08-28T17:22:39.949Z,30.95
2023-08-28T17:25:08.490Z,31.44
2023-08-28T17:27:36.272Z,31.49
2023-08-28T17:30:04.666Z,31.43
2023-08-28T17:32:32.651Z,31.20
2023-08-28T17:35:00.620Z,30.87
2023-08-28T17:37:28.521Z,30.71
2023-08-28T17:39:57.600Z,31.36
2023-08-28T17:42:25.601Z,32.46
2023-08-28T17:44:53.432Z,32.74
2023-08-28T17:47:21.261Z,31.95
2023-08-28T17:49:52.787Z,32.23
2023-08-28T17:52:20.606Z,31.26
2023-08-28T17:54:48.525Z,31.44
2023-08-28T17:57:17.948Z,30.98
2023-08-28T17:59:45.768Z,30.77
2023-08-28T18:02:13.467Z,31.36
2023-08-28T18:04:41.404Z,31.58
2023-08-28T18:07:09.301Z,31.63
2023-08-28T18:09:37.233Z,31.13
2023-08-28T18:12:05.664Z,31.62
2023-08-28T18:14:34.913Z,31.10
2023-08-28T18:17:02.715Z,31.25
2023-08-28T18:19:32.687Z,31.28
2023-08-28T18:22:00.516Z,31.23
2023-08-28T18:24:30.300Z,31.47
2023-08-28T18:26:58.096Z,31.19
2023-08-28T18:29:25.918Z,29.76
2023-08-28T18:31:55.456Z,31.16
2023-08-28T18:34:24.267Z,31.83
2023-08-28T18:36:52.314Z,30.39
2023-08-28T18:39:21.519Z,31.12
2023-08-28T18:42:03.256Z,30.54
2023-08-28T18:44:35.313Z,30.51
2023-08-28T18:47:04.717Z,31.16
2023-08-28T18:49:32.552Z,31.00
2023-08-28T18:52:00.398Z,30.45
2023-08-28T18:54:29.408Z,29.96
2023-08-28T18:56:57.224Z,29.47
2023-08-28T18:59:25.040Z,30.20
2023-08-28T19:01:52.833Z,29.67
2023-08-28T19:04:24.949Z,29.76
2023-08-28T19:06:52.933Z,28.95
2023-08-28T19:09:20.707Z,29.28
2023-08-28T19:11:50.546Z,29.67
2023-08-28T19:14:18.463Z,29.36
2023-08-28T19:16:46.292Z,29.62
2023-08-28T19:19:14.379Z,29.76
2023-08-28T19:21:43.753Z,29.69
2023-08-28T19:24:11.614Z,30.25
2023-08-28T19:26:39.389Z,29.55
2023-08-28T19:29:07.214Z,28.73
2023-08-28T19:31:35.082Z,28.10
2023-08-28T19:34:02.994Z,27.91
2023-08-28T19:36:30.759Z,28.46
2023-08-28T19:38:59.920Z,28.03
2023-08-28T19:41:27.812Z,27.87
2023-08-28T19:43:55.606Z,29.07
2023-08-28T19:46:23.502Z,27.99
2023-08-28T19:48:51.305Z,29.09
2023-08-28T19:51:19.110Z,29.19
2023-08-28T19:53:46.842Z,28.96
2023-08-28T19:56:16.151Z,28.24
2023-08-28T19:58:43.948Z,27.99
2023-08-28T20:01:11.825Z,27.83
2023-08-28T20:03:40.988Z,28.44
2023-08-28T20:06:09.008Z,28.39
2023-08-28T20:08:36.792Z,28.75
2023-08-28T20:11:06.209Z,28.38
2023-08-28T20:13:35.526Z,29.30
2023-08-28T20:16:04.770Z,27.78
2023-08-28T20:18:33.565Z,29.65
2023-08-28T20:21:01.399Z,29.61
2023-08-28T20:23:29.822Z,29.15
2023-08-28T20:25:57.588Z,29.44
2023-08-28T20:28:25.492Z,29.60
2023-08-28T20:30:54.641Z,29.32
2023-08-28T20:33:22.432Z,28.85
2023-08-28T20:35:50.153Z,28.33
2023-08-28T20:38:17.946Z,28.91
2023-08-28T20:40:49.531Z,28.90
2023-08-28T20:43:17.671Z,28.42
2023-08-28T20:45:45.629Z,28.78
2023-08-28T20:48:14.854Z,28.28
2023-08-28T20:50:42.736Z,28.36
2023-08-28T20:53:10.547Z,28.17
2023-08-28T20:55:38.322Z,28.76
2023-08-28T20:58:06.402Z,29.15
2023-08-28T21:00:34.426Z,29.62
2023-08-28T21:03:02.828Z,29.97
2023-08-28T21:05:32.006Z,29.82
2023-08-28T21:07:59.804Z,29.63
2023-08-28T21:10:27.869Z,29.52
2023-08-28T21:12:55.671Z,29.35
2023-08-28T21:15:23.860Z,28.32
2023-08-28T21:17:52.157Z,28.70
2023-08-28T21:20:20.195Z,28.03
2023-08-28T21:22:50.988Z,28.20
2023-08-28T21:25:19.129Z,29.31
2023-08-28T21:27:46.959Z,29.88
2023-08-28T21:30:14.922Z,29.33
2023-08-28T21:32:45.450Z,28.77
2023-08-28T21:35:13.564Z,28.60
2023-08-28T21:37:41.771Z,29.70
2023-08-28T21:40:11.722Z,28.57
2023-08-28T21:42:39.503Z,28.53
2023-08-28T21:45:09.968Z,29.56
2023-08-28T21:47:37.863Z,29.20
2023-08-28T21:50:24.420Z,28.81
2023-08-28T21:53:10.942Z,29.75
2023-08-28T21:55:58.773Z,28.21
2023-08-28T21:58:44.941Z,28.77
2023-08-28T22:01:31.439Z,28.02
2023-08-28T22:04:17.752Z,27.56
2023-08-28T22:07:04.399Z,27.55
2023-08-28T22:09:50.753Z,28.37
2023-08-28T22:12:27.975Z,27.05
2023-08-28T22:14:59.885Z,28.15
2023-08-28T22:17:28.973Z,27.94
2023-08-28T22:19:57.804Z,28.26
2023-08-28T22:22:25.538Z,27.96
2023-08-28T22:24:53.384Z,28.24
2023-08-28T22:27:21.208Z,28.41
2023-08-28T22:29:50.346Z,27.63
2023-08-28T22:32:18.112Z,28.32
2023-08-28T22:34:45.940Z,28.61
2023-08-28T22:37:13.901Z,28.32
2023-08-28T22:39:41.782Z,28.73
2023-08-28T22:42:09.597Z,28.31
2023-08-28T22:44:37.356Z,28.91
2023-08-28T22:47:07.317Z,27.68
2023-08-28T22:49:35.137Z,28.41
2023-08-28T22:52:02.904Z,28.49
2023-08-28T22:54:30.745Z,28.56
2023-08-28T22:56:58.567Z,28.63
2023-08-28T22:59:26.365Z,29.32
2023-08-28T23:01:54.162Z,30.02
2023-08-28T23:04:23.365Z,29.25
2023-08-28T23:06:51.280Z,29.79
2023-08-28T23:09:19.240Z,28.36
2023-08-28T23:11:47.038Z,29.40
2023-08-28T23:14:14.785Z,29.13
2023-08-28T23:16:42.607Z,29.37
2023-08-28T23:19:12.289Z,29.57
2023-08-28T23:21:41.887Z,29.02
2023-08-28T23:24:10.415Z,29.49
2023-08-28T23:26:38.317Z,29.32
2023-08-28T23:29:06.377Z,28.30
2023-08-28T23:31:34.187Z,28.21
2023-08-28T23:34:05.584Z,28.37
2023-08-28T23:36:33.419Z,26.92
2023-08-28T23:39:08.114Z,27.34
2023-08-28T23:41:36.463Z,27.55
2023-08-28T23:44:04.419Z,28.93
2023-08-28T23:46:32.237Z,28.23
2023-08-28T23:49:00.126Z,28.04
2023-08-28T23:51:28.741Z,26.72
2023-08-28T23:53:57.106Z,28.57
2023-08-28T23:56:26.978Z,27.75
2023-08-28T23:58:54.902Z,28.23
